Time;durP1;ratioP1;P1;durP2;ratioP2;P2;SDS_P1;SDS_P2;PMS_P1;PMS_P2;Temp;Humidity;BMP_temperature;BMP_pressure;BME280_temperature;BME280_humidity;BME280_pressure;Samples;Min_cycle;Max_cycle;Signal;HPM_P1;HPM_P2
2022/04/30 00:00:05;;;;;;;14.07;8.23;;;6.50;99.90;;;;;;5035037;28;20048;-53
2022/04/30 00:02:30;;;;;;;15.93;8.52;;;6.40;99.90;;;;;;5052918;28;20126;-53
2022/04/30 00:04:56;;;;;;;16.35;8.07;;;6.40;99.90;;;;;;5053054;28;20514;-53
2022/04/30 00:07:21;;;;;;;16.88;9.18;;;6.40;99.90;;;;;;5035121;28;20120;-50
2022/04/30 00:09:48;;;;;;;19.88;8.40;;;6.40;99.90;;;;;;5052902;28;20236;-53
2022/04/30 00:12:16;;;;;;;18.00;9.40;;;6.40;99.90;;;;;;5035319;28;20052;-48
2022/04/30 00:14:42;;;;;;;17.25;8.10;;;6.40;99.90;;;;;;5052778;28;20099;-53
2022/04/30 00:17:08;;;;;;;16.85;8.43;;;6.40;99.90;;;;;;5052319;28;20521;-51
2022/04/30 00:19:33;;;;;;;16.55;8.55;;;6.30;99.90;;;;;;5052457;28;20037;-52
2022/04/30 00:21:59;;;;;;;15.77;8.98;;;6.30;99.90;;;;;;5052777;28;20040;-50
2022/04/30 00:24:26;;;;;;;19.33;8.70;;;6.30;99.90;;;;;;5051972;28;20045;-49
2022/04/30 00:26:53;;;;;;;16.80;8.55;;;6.30;99.90;;;;;;5034956;28;20059;-47
2022/04/30 00:29:18;;;;;;;14.30;7.80;;;6.20;99.90;;;;;;5052207;28;20044;-50
2022/04/30 00:31:44;;;;;;;15.02;8.63;;;6.20;99.90;;;;;;5052526;28;20029;-48
2022/04/30 00:34:10;;;;;;;17.67;9.23;;;6.20;99.90;;;;;;5052495;28;20037;-47
2022/04/30 00:36:36;;;;;;;13.60;8.68;;;6.20;99.90;;;;;;5052331;28;20041;-49
2022/04/30 00:39:02;;;;;;;14.32;8.73;;;6.10;99.90;;;;;;5052054;28;20033;-49
2022/04/30 00:41:32;;;;;;;19.05;9.45;;;6.10;99.90;;;;;;5034264;28;20037;-50
2022/04/30 00:43:58;;;;;;;18.77;8.35;;;6.10;99.90;;;;;;5052072;28;20566;-47
2022/04/30 00:46:25;;;;;;;15.30;8.82;;;6.00;99.90;;;;;;5052412;28;20045;-47
2022/04/30 00:48:54;;;;;;;14.88;8.60;;;6.00;99.90;;;;;;5051929;28;20559;-50
2022/04/30 00:51:22;;;;;;;15.90;9.15;;;6.10;99.90;;;;;;5051927;28;20052;-47
2022/04/30 00:53:53;;;;;;;16.65;8.57;;;6.00;99.90;;;;;;5051952;28;20487;-47
2022/04/30 00:56:33;;;;;;;19.40;8.85;;;6.00;99.90;;;;;;5051851;28;20510;-50
2022/04/30 00:59:03;;;;;;;17.63;8.80;;;5.90;99.90;;;;;;5051795;28;20511;-50
2022/04/30 01:01:32;;;;;;;15.32;8.50;;;5.90;99.90;;;;;;5052217;28;20045;-47
2022/04/30 01:03:58;;;;;;;16.40;8.52;;;5.90;99.90;;;;;;5051996;28;20041;-48
2022/04/30 01:06:55;;;;;;;14.10;8.63;;;5.90;99.90;;;;;;5045962;28;20037;-47
2022/04/30 01:09:28;;;;;;;17.02;9.20;;;5.80;99.90;;;;;;5030870;28;20120;-47
2022/04/30 01:12:17;;;;;;;15.80;8.70;;;5.80;99.90;;;;;;5031779;28;20033;-49
2022/04/30 01:14:48;;;;;;;16.70;8.27;;;5.70;99.90;;;;;;5031847;28;20410;-47
2022/04/30 01:17:14;;;;;;;16.10;8.57;;;5.70;99.90;;;;;;5031544;28;20411;-48
2022/04/30 01:19:43;;;;;;;15.90;8.13;;;5.70;99.90;;;;;;5031714;28;20460;-48
2022/04/30 01:22:27;;;;;;;17.80;9.10;;;5.70;99.90;;;;;;5031684;28;20123;-50
2022/04/30 01:24:57;;;;;;;15.05;8.82;;;5.70;99.90;;;;;;5031521;28;20049;-50
2022/04/30 01:27:29;;;;;;;16.13;9.18;;;5.60;99.90;;;;;;5031394;28;20033;-48
2022/04/30 01:30:04;;;;;;;17.67;8.80;;;5.60;99.90;;;;;;5038653;28;20087;-50
2022/04/30 01:38:05;;;;;;;15.95;9.50;;;5.50;99.90;;;;;;5050784;28;20053;-52
2022/04/30 01:40:31;;;;;;;18.52;8.70;;;5.40;99.90;;;;;;5051148;28;20095;-53
2022/04/30 01:43:01;;;;;;;17.60;9.00;;;5.40;99.90;;;;;;5045505;28;20033;-52
2022/04/30 01:45:31;;;;;;;18.67;8.73;;;5.40;99.90;;;;;;5044492;28;20041;-50
2022/04/30 01:47:59;;;;;;;14.43;7.35;;;5.30;99.90;;;;;;5051059;28;20078;-48
2022/04/30 01:50:28;;;;;;;15.02;7.47;;;5.30;99.90;;;;;;5050187;28;20052;-49
2022/04/30 01:52:54;;;;;;;13.90;7.68;;;5.20;99.90;;;;;;5033839;28;20089;-49
2022/04/30 01:55:22;;;;;;;15.45;7.97;;;5.20;99.90;;;;;;5051129;28;20116;-47
2022/04/30 01:57:48;;;;;;;17.35;8.88;;;5.10;99.90;;;;;;5043978;28;20045;-50
2022/04/30 02:00:14;;;;;;;17.00;8.25;;;5.00;99.90;;;;;;5039120;28;20045;-49
2022/04/30 02:02:46;;;;;;;13.32;8.27;;;4.90;99.90;;;;;;5030275;28;20073;-47
2022/04/30 02:05:15;;;;;;;19.73;9.47;;;4.90;99.90;;;;;;5030939;28;20125;-50
2022/04/30 02:07:46;;;;;;;16.55;8.35;;;4.80;99.90;;;;;;5031021;28;20292;-49
2022/04/30 02:10:12;;;;;;;16.63;8.27;;;4.70;99.90;;;;;;5031034;28;20049;-50
2022/04/30 02:12:39;;;;;;;15.30;8.73;;;4.70;99.90;;;;;;5031097;28;20033;-48
2022/04/30 02:15:08;;;;;;;15.00;8.68;;;4.60;99.90;;;;;;5031178;28;20049;-47
2022/04/30 02:17:38;;;;;;;11.63;7.35;;;4.50;99.90;;;;;;5030741;28;20049;-49
2022/04/30 02:20:19;;;;;;;16.48;8.07;;;4.50;99.90;;;;;;5030423;28;20080;-49
2022/04/30 02:22:48;;;;;;;16.30;8.38;;;4.40;99.90;;;;;;5030941;28;20045;-49
2022/04/30 02:25:15;;;;;;;13.07;8.25;;;4.30;99.90;;;;;;5030975;28;20093;-47
2022/04/30 02:27:49;;;;;;;14.18;7.97;;;4.30;99.90;;;;;;5029709;28;20052;-47
2022/04/30 02:30:17;;;;;;;16.25;8.43;;;4.30;99.90;;;;;;5013244;28;20068;-49
2022/04/30 02:32:51;;;;;;;12.25;7.65;;;4.20;99.90;;;;;;5031192;28;20037;-52
2022/04/30 02:35:22;;;;;;;14.07;8.00;;;4.20;99.90;;;;;;5030921;28;20045;-50
2022/04/30 02:37:50;;;;;;;16.25;8.02;;;4.20;99.90;;;;;;5030478;28;20072;-48
2022/04/30 02:40:20;;;;;;;14.77;7.93;;;4.10;99.90;;;;;;5030699;28;20056;-48
2022/04/30 02:42:51;;;;;;;;;;;4.10;99.90;;;;;;5034777;28;20045;-50
2022/04/30 02:45:18;;;;;;;14.90;8.45;;;4.10;99.90;;;;;;5034724;28;19928;-48
2022/04/30 02:47:48;;;;;;;16.48;8.60;;;4.10;99.90;;;;;;5034404;28;20168;-49
2022/04/30 02:50:17;;;;;;;13.75;8.18;;;4.10;99.90;;;;;;5016409;28;20500;-48
2022/04/30 02:52:46;;;;;;;13.60;8.88;;;4.10;99.90;;;;;;5034349;28;20517;-49
2022/04/30 02:55:15;;;;;;;15.60;8.55;;;4.20;99.90;;;;;;5034131;28;20050;-47
2022/04/30 03:00:42;;;;;;;16.50;9.23;;;4.20;99.90;;;;;;5034115;28;20124;-49
2022/04/30 03:03:09;;;;;;;13.75;8.27;;;4.20;99.90;;;;;;5034280;28;20046;-47
2022/04/30 03:05:37;;;;;;;12.10;7.03;;;4.10;99.90;;;;;;5033043;28;20053;-47
2022/04/30 03:08:13;;;;;;;12.40;8.18;;;4.10;99.90;;;;;;5033823;28;20041;-47
2022/04/30 03:10:48;;;;;;;12.43;6.57;;;4.10;99.90;;;;;;5034009;28;20033;-48
2022/04/30 03:13:18;;;;;;;9.85;6.40;;;4.00;99.90;;;;;;5016325;28;20069;-47
2022/04/30 03:15:47;;;;;;;10.45;6.65;;;4.10;99.90;;;;;;5033841;28;20080;-48
2022/04/30 03:23:37;;;;;;;13.32;8.18;;;4.10;99.90;;;;;;5033769;28;20061;-48
2022/04/30 03:26:08;;;;;;;11.60;7.65;;;4.10;99.90;;;;;;5033730;28;20069;-47
2022/04/30 03:28:37;;;;;;;15.95;8.55;;;4.10;99.90;;;;;;5033321;28;20033;-47
2022/04/30 03:31:07;;;;;;;14.82;8.65;;;4.10;99.90;;;;;;5033557;28;20040;-49
2022/04/30 03:33:33;;;;;;;14.48;8.73;;;4.20;99.90;;;;;;5033586;28;20037;-49
2022/04/30 03:36:02;;;;;;;14.73;8.65;;;4.20;99.90;;;;;;5033424;28;20037;-49
2022/04/30 03:38:31;;;;;;;16.63;9.23;;;4.20;99.90;;;;;;5033304;28;20068;-50
2022/04/30 03:40:57;;;;;;;14.20;8.00;;;4.20;99.90;;;;;;5033350;28;20084;-47
2022/04/30 03:43:23;;;;;;;19.67;9.52;;;4.30;99.90;;;;;;5033329;28;20046;-47
2022/04/30 03:45:49;;;;;;;10.95;7.07;;;4.30;99.90;;;;;;5033274;28;20038;-48
2022/04/30 03:48:16;;;;;;;14.63;8.70;;;4.30;99.90;;;;;;5033008;28;20075;-48
2022/04/30 03:50:42;;;;;;;14.65;7.70;;;4.20;99.90;;;;;;5059333;22;20660;-48
2022/04/30 03:53:08;;;;;;;17.98;8.85;;;4.20;99.90;;;;;;5082195;28;20424;-48
2022/04/30 03:55:34;;;;;;;18.65;9.38;;;4.10;99.90;;;;;;5072935;28;20123;-46
2022/04/30 03:58:00;;;;;;;15.63;8.80;;;4.10;99.90;;;;;;5073104;28;20132;-49
2022/04/30 04:00:26;;;;;;;16.25;9.05;;;4.10;99.90;;;;;;5073202;28;20043;-46
2022/04/30 04:02:53;;;;;;;15.50;8.43;;;4.10;99.90;;;;;;5073133;28;20041;-49
2022/04/30 04:05:19;;;;;;;15.15;7.95;;;4.10;99.90;;;;;;5072853;28;20052;-46
2022/04/30 04:07:45;;;;;;;16.73;9.10;;;4.10;99.90;;;;;;5072686;28;20413;-46
2022/04/30 04:10:12;;;;;;;18.65;8.85;;;4.20;99.90;;;;;;5073262;28;20090;-47
2022/04/30 04:12:38;;;;;;;21.10;9.63;;;4.20;99.90;;;;;;5073063;28;20098;-46
2022/04/30 04:17:50;;;;;;;16.90;9.63;;;4.20;99.90;;;;;;5072597;28;20110;-48
2022/04/30 04:20:18;;;;;;;22.20;10.05;;;4.30;99.90;;;;;;5072601;28;20041;-46
2022/04/30 04:22:45;;;;;;;13.77;9.02;;;4.30;99.90;;;;;;5072639;28;20409;-47
2022/04/30 04:27:55;;;;;;;13.63;7.97;;;4.40;99.90;;;;;;5072487;28;20094;-46
2022/04/30 04:30:32;;;;;;;17.08;8.52;;;4.30;99.90;;;;;;5072491;28;20036;-46
2022/04/30 04:32:58;;;;;;;18.10;8.65;;;4.30;99.90;;;;;;5072628;28;20041;-46
2022/04/30 04:35:24;;;;;;;16.23;9.10;;;4.30;99.90;;;;;;5072187;28;20041;-46
2022/04/30 04:37:50;;;;;;;17.20;9.18;;;4.30;99.90;;;;;;5072306;28;20048;-46
2022/04/30 04:40:17;;;;;;;17.30;8.85;;;4.20;99.90;;;;;;5072332;28;20036;-46
2022/04/30 04:42:44;;;;;;;16.33;9.32;;;4.20;99.90;;;;;;5072366;28;20090;-49
2022/04/30 04:45:10;;;;;;;16.27;9.50;;;4.30;99.90;;;;;;5072167;28;20044;-47
2022/04/30 04:47:39;;;;;;;18.85;10.55;;;4.30;99.90;;;;;;5071798;28;20047;-46
2022/04/30 04:50:05;;;;;;;15.90;9.82;;;4.40;99.90;;;;;;5072180;28;20089;-47
2022/04/30 04:52:31;;;;;;;16.70;9.85;;;4.40;99.90;;;;;;5071861;28;20048;-47
2022/04/30 04:54:59;;;;;;;20.73;10.07;;;4.50;99.90;;;;;;5071940;28;20059;-46
2022/04/30 04:57:25;;;;;;;17.75;9.23;;;4.60;99.90;;;;;;5071798;28;20150;-47
2022/04/30 04:59:51;;;;;;;18.63;10.43;;;4.60;99.90;;;;;;5071003;28;20131;-47
2022/04/30 05:02:18;;;;;;;17.27;10.10;;;4.70;99.90;;;;;;5070522;28;20490;-46
2022/04/30 05:04:43;;;;;;;19.48;10.70;;;4.80;99.90;;;;;;5053950;28;20076;-47
2022/04/30 05:07:09;;;;;;;17.58;10.98;;;4.80;99.90;;;;;;5071715;28;20113;-47
2022/04/30 05:09:34;;;;;;;19.17;10.25;;;4.90;99.90;;;;;;5071701;28;20036;-46
2022/04/30 05:12:03;;;;;;;24.48;10.45;;;4.90;99.90;;;;;;5071775;28;20041;-46
2022/04/30 05:14:31;;;;;;;18.75;10.65;;;5.00;99.90;;;;;;5071696;28;20040;-46
2022/04/30 05:16:57;;;;;;;18.42;10.20;;;5.00;99.90;;;;;;5071562;28;20118;-46
2022/04/30 05:19:23;;;;;;;22.48;10.57;;;5.10;99.90;;;;;;5071506;28;20087;-46
2022/04/30 05:21:48;;;;;;;18.83;10.68;;;5.10;99.90;;;;;;5071774;28;20040;-46
2022/04/30 05:24:14;;;;;;;18.85;9.95;;;5.20;99.90;;;;;;5071590;28;20047;-46
2022/04/30 05:26:39;;;;;;;16.92;10.32;;;5.30;99.90;;;;;;5071661;28;20067;-46
2022/04/30 05:29:06;;;;;;;17.85;10.05;;;5.30;99.90;;;;;;5071316;28;20033;-46
2022/04/30 05:31:31;;;;;;;23.58;10.00;;;5.40;99.90;;;;;;5071325;28;20036;-47
2022/04/30 05:33:57;;;;;;;15.65;9.32;;;5.50;99.90;;;;;;5071642;28;20040;-46
2022/04/30 05:36:22;;;;;;;16.17;9.98;;;5.60;99.90;;;;;;5070359;28;20032;-49
2022/04/30 05:38:48;;;;;;;24.58;10.73;;;5.60;99.90;;;;;;5071339;28;20070;-46
2022/04/30 05:41:13;;;;;;;22.67;10.38;;;5.60;99.90;;;;;;5071304;28;20056;-46
2022/04/30 05:43:39;;;;;;;16.48;9.75;;;5.70;99.90;;;;;;5070193;28;20090;-46
2022/04/30 05:46:06;;;;;;;26.45;11.25;;;5.80;99.90;;;;;;5069861;28;20057;-46
2022/04/30 05:48:32;;;;;;;22.45;11.50;;;5.90;99.90;;;;;;5053143;28;20241;-46
2022/04/30 05:50:58;;;;;;;31.05;10.63;;;6.00;99.90;;;;;;5071368;28;20029;-46
2022/04/30 05:53:23;;;;;;;23.90;11.32;;;6.00;99.90;;;;;;5071354;28;20174;-46
2022/04/30 05:55:49;;;;;;;22.95;11.20;;;6.00;99.90;;;;;;5071380;28;20050;-46
2022/04/30 05:58:15;;;;;;;17.60;10.68;;;6.10;99.90;;;;;;5069762;28;20048;-48
2022/04/30 06:00:40;;;;;;;20.70;10.35;;;6.20;99.90;;;;;;5071036;28;20041;-46
2022/04/30 06:03:06;;;;;;;17.42;10.00;;;6.30;99.90;;;;;;5069921;28;20406;-48
2022/04/30 06:05:32;;;;;;;20.00;11.00;;;6.30;99.90;;;;;;5071107;28;20090;-46
2022/04/30 06:07:57;;;;;;;18.50;11.00;;;6.30;99.90;;;;;;5070942;28;20044;-46
2022/04/30 06:10:23;;;;;;;19.70;10.65;;;6.40;99.90;;;;;;5070129;28;20549;-48
2022/04/30 06:12:48;;;;;;;21.73;10.85;;;6.40;99.90;;;;;;5071121;28;20072;-48
2022/04/30 06:15:14;;;;;;;19.90;10.68;;;6.50;99.90;;;;;;5071851;28;20090;-47
2022/04/30 06:17:40;;;;;;;17.48;10.30;;;6.60;99.90;;;;;;5074962;28;20079;-46
2022/04/30 06:20:06;;;;;;;20.05;10.93;;;6.70;99.90;;;;;;5074952;28;20040;-47
2022/04/30 06:22:31;;;;;;;16.95;10.65;;;6.80;99.90;;;;;;5074968;28;20048;-48
2022/04/30 06:24:57;;;;;;;17.58;10.63;;;6.90;99.90;;;;;;5074781;28;20041;-46
2022/04/30 06:27:22;;;;;;;16.23;10.25;;;7.00;99.90;;;;;;5074713;28;20072;-46
2022/04/30 06:29:51;;;;;;;20.67;10.85;;;7.10;99.90;;;;;;5074627;28;20076;-47
2022/04/30 06:32:17;;;;;;;17.70;10.00;;;7.10;99.90;;;;;;5074921;28;20082;-47
2022/04/30 06:34:42;;;;;;;23.08;11.00;;;7.20;99.90;;;;;;5074878;28;20452;-47
2022/04/30 06:37:08;;;;;;;20.48;10.52;;;7.30;99.90;;;;;;5074597;28;20087;-46
2022/04/30 06:39:33;;;;;;;18.92;10.48;;;7.40;99.90;;;;;;5074535;28;20048;-47
2022/04/30 06:41:59;;;;;;;19.05;10.73;;;7.40;99.90;;;;;;5074596;28;20045;-48
2022/04/30 06:44:24;;;;;;;17.83;10.30;;;7.50;99.90;;;;;;5074815;28;20037;-47
2022/04/30 06:46:50;;;;;;;17.13;9.95;;;7.50;99.90;;;;;;5073201;28;20040;-50
2022/04/30 06:49:15;;;;;;;17.80;10.38;;;7.60;99.90;;;;;;5074285;28;20040;-47
2022/04/30 06:51:41;;;;;;;19.48;10.20;;;7.60;99.90;;;;;;5074339;28;20048;-46
2022/04/30 06:59:40;;;;;;;18.15;10.48;;;7.80;99.90;;;;;;5074260;28;20462;-49
2022/04/30 07:02:07;;;;;;;17.77;9.57;;;7.90;99.90;;;;;;5074252;28;20036;-48
2022/04/30 07:04:33;;;;;;;15.13;8.45;;;8.00;99.90;;;;;;5073962;28;20482;-48
2022/04/30 07:06:59;;;;;;;13.50;8.52;;;8.00;99.90;;;;;;5074015;28;20447;-48
2022/04/30 07:09:28;;;;;;;24.02;9.35;;;8.10;99.90;;;;;;5072525;28;20029;-48
2022/04/30 07:11:54;;;;;;;15.68;8.45;;;8.20;99.90;;;;;;5074124;28;20048;-50
2022/04/30 07:14:20;;;;;;;21.52;9.70;;;8.20;99.90;;;;;;5074100;28;20045;-47
2022/04/30 07:16:45;;;;;;;16.25;8.48;;;8.20;99.90;;;;;;5073970;28;20040;-49
2022/04/30 07:19:11;;;;;;;15.75;8.70;;;8.30;99.90;;;;;;5073806;28;20512;-50
2022/04/30 07:21:36;;;;;;;14.77;9.07;;;8.30;99.90;;;;;;5073870;28;20060;-48
2022/04/30 07:24:02;;;;;;;15.77;8.50;;;8.50;99.90;;;;;;5073625;28;20397;-49
2022/04/30 07:26:28;;;;;;;20.60;9.45;;;8.50;99.90;;;;;;5072969;28;20040;-49
2022/04/30 07:28:54;;;;;;;14.07;7.78;;;8.60;99.90;;;;;;5073360;28;20040;-47
2022/04/30 07:31:19;;;;;;;17.17;8.18;;;8.60;99.90;;;;;;5073569;28;20033;-49
2022/04/30 07:33:46;;;;;;;17.73;7.95;;;8.70;99.90;;;;;;5073625;28;20490;-50
2022/04/30 07:36:12;;;;;;;13.80;7.60;;;8.80;99.90;;;;;;5073683;28;20123;-47
2022/04/30 07:38:39;;;;;;;15.38;7.95;;;8.80;99.90;;;;;;5072163;28;20087;-50
2022/04/30 07:41:05;;;;;;;15.70;8.27;;;8.90;99.90;;;;;;5073656;28;20071;-50
2022/04/30 07:43:30;;;;;;;12.40;6.50;;;9.10;99.90;;;;;;5073479;28;20401;-49
2022/04/30 07:45:56;;;;;;;13.88;6.60;;;9.10;99.90;;;;;;5073370;28;20104;-49
2022/04/30 07:48:21;;;;;;;14.65;6.85;;;9.30;99.90;;;;;;5073152;28;20119;-49
2022/04/30 07:50:47;;;;;;;10.85;6.10;;;9.30;99.90;;;;;;5071759;28;20068;-50
2022/04/30 07:53:15;;;;;;;10.30;6.65;;;9.40;99.90;;;;;;5073107;28;20115;-49
2022/04/30 07:55:44;;;;;;;15.18;6.90;;;9.50;99.90;;;;;;5073528;28;20441;-49
2022/04/30 07:58:11;;;;;;;12.43;7.13;;;9.50;99.90;;;;;;5073096;28;20505;-49
2022/04/30 08:00:36;;;;;;;12.02;6.40;;;9.70;99.90;;;;;;5073082;28;20043;-45
2022/04/30 08:03:03;;;;;;;10.98;5.90;;;9.80;99.90;;;;;;5072011;28;20405;-48
2022/04/30 08:05:29;;;;;;;9.40;5.05;;;9.90;99.90;;;;;;5055050;28;20106;-49
2022/04/30 08:07:55;;;;;;;12.10;6.18;;;9.90;99.90;;;;;;5072520;28;20541;-49
2022/04/30 08:10:21;;;;;;;10.82;6.20;;;9.90;99.90;;;;;;5073134;28;20044;-49
2022/04/30 08:12:53;;;;;;;10.45;5.88;;;9.90;99.90;;;;;;5073403;28;20041;-47
2022/04/30 08:15:20;;;;;;;10.80;6.70;;;9.90;99.90;;;;;;5072876;28;20506;-48
2022/04/30 08:17:45;;;;;;;12.70;6.35;;;9.90;99.90;;;;;;5072615;28;20056;-48
2022/04/30 08:20:11;;;;;;;13.07;6.70;;;9.90;99.90;;;;;;5072613;28;20041;-47
2022/04/30 08:22:36;;;;;;;13.38;5.95;;;9.90;99.90;;;;;;5073090;28;20049;-49
2022/04/30 08:25:03;;;;;;;11.77;5.97;;;9.90;99.90;;;;;;5071355;28;20067;-51
2022/04/30 08:27:28;;;;;;;16.15;7.20;;;9.90;99.90;;;;;;5072353;28;20045;-49
2022/04/30 08:29:54;;;;;;;14.18;7.35;;;10.00;99.90;;;;;;5054933;28;20098;-51
2022/04/30 08:32:26;;;;;;;20.33;7.20;;;10.00;99.90;;;;;;5072429;28;20465;-50
2022/04/30 08:34:52;;;;;;;;;;;10.00;99.90;;;;;;5072721;28;20494;-51
2022/04/30 08:37:18;;;;;;;12.70;6.95;;;10.10;99.90;;;;;;5070899;28;20389;-51
2022/04/30 08:39:44;;;;;;;13.57;7.20;;;10.20;99.90;;;;;;5072191;28;20091;-49
2022/04/30 08:42:12;;;;;;;13.82;8.07;;;10.40;99.90;;;;;;5072344;28;20036;-51
2022/04/30 08:44:39;;;;;;;14.15;8.07;;;10.60;99.90;;;;;;5072196;28;20056;-48
2022/04/30 08:47:06;;;;;;;10.68;6.55;;;10.80;99.90;;;;;;5072336;28;20074;-47
2022/04/30 08:49:32;;;;;;;12.88;7.43;;;11.00;99.90;;;;;;5071788;28;20521;-48
2022/04/30 08:51:58;;;;;;;14.90;7.32;;;11.10;99.90;;;;;;5072212;28;20032;-51
2022/04/30 08:54:24;;;;;;;11.02;6.65;;;11.30;99.90;;;;;;5070803;28;20116;-47
2022/04/30 08:56:54;;;;;;;15.68;6.47;;;11.40;99.90;;;;;;5072167;28;20036;-47
2022/04/30 08:59:20;;;;;;;12.73;6.57;;;11.50;99.90;;;;;;5072262;28;20477;-49
2022/04/30 09:01:51;;;;;;;15.30;7.10;;;11.50;99.90;;;;;;5071731;28;20033;-47
2022/04/30 09:04:18;;;;;;;11.02;6.78;;;11.50;99.90;;;;;;5071813;28;20044;-47
2022/04/30 09:06:49;;;;;;;16.45;6.75;;;11.50;99.90;;;;;;5072088;28;20048;-49
2022/04/30 09:09:28;;;;;;;10.45;6.10;;;11.40;99.90;;;;;;5071672;28;20046;-50
2022/04/30 09:11:57;;;;;;;12.18;6.82;;;11.30;99.90;;;;;;5070701;28;20032;-51
2022/04/30 09:14:26;;;;;;;13.02;6.32;;;11.30;99.90;;;;;;5071586;28;20111;-51
2022/04/30 09:17:06;;;;;;;11.35;5.90;;;11.30;99.90;;;;;;5071866;28;20121;-48
2022/04/30 09:19:52;;;;;;;10.85;5.40;;;11.20;99.90;;;;;;5071503;28;20154;-50
2022/04/30 09:22:35;;;;;;;11.68;5.93;;;11.20;99.90;;;;;;5060498;28;20049;-51
2022/04/30 09:25:12;;;;;;;12.30;6.40;;;11.20;99.90;;;;;;5071466;28;20045;-48
2022/04/30 09:27:43;;;;;;;11.80;5.90;;;11.40;99.90;;;;;;5071547;28;20047;-51
2022/04/30 09:30:20;;;;;;;13.65;6.57;;;11.60;99.90;;;;;;5071564;28;20082;-49
2022/04/30 09:32:57;;;;;;;9.25;5.55;;;11.70;99.90;;;;;;5072037;28;20081;-51
2022/04/30 09:38:08;;;;;;;9.73;5.00;;;11.80;99.90;;;;;;5071426;28;20087;-50
2022/04/30 09:40:34;;;;;;;9.82;5.00;;;11.90;99.90;;;;;;5071472;28;20051;-51
2022/04/30 09:43:01;;;;;;;7.78;5.13;;;11.90;99.90;;;;;;5071390;28;20044;-52
2022/04/30 09:45:33;;;;;;;9.93;4.80;;;11.90;99.90;;;;;;5071269;28;20409;-52
2022/04/30 09:48:00;;;;;;;10.10;4.85;;;11.80;99.90;;;;;;5071318;28;20071;-50
2022/04/30 09:56:10;;;;;;;12.48;5.30;;;11.70;99.50;;;;;;5031221;28;20052;-47
2022/04/30 09:58:40;;;;;;;14.77;6.28;;;11.60;99.90;;;;;;5031214;28;20120;-46
2022/04/30 10:01:07;;;;;;;10.23;6.07;;;11.50;99.90;;;;;;5031886;28;20052;-46
2022/04/30 10:03:33;;;;;;;9.63;5.30;;;11.50;99.90;;;;;;5011595;28;20458;-46
2022/04/30 10:06:04;;;;;;;14.57;5.90;;;11.60;99.90;;;;;;5010277;28;20543;-45
2022/04/30 10:08:35;;;;;;;9.52;5.38;;;11.60;99.90;;;;;;5011074;28;20038;-47
2022/04/30 10:11:13;;;;;;;15.15;6.22;;;11.60;99.90;;;;;;5011750;28;20034;-46
2022/04/30 10:13:49;;;;;;;12.02;6.82;;;11.70;99.90;;;;;;5011700;28;20050;-46
2022/04/30 10:16:24;;;;;;;11.43;6.40;;;11.60;99.90;;;;;;5011366;28;20411;-46
2022/04/30 10:19:09;;;;;;;12.35;5.32;;;11.50;99.90;;;;;;5011206;28;20446;-46
2022/04/30 10:21:35;;;;;;;10.32;5.65;;;11.50;99.90;;;;;;5011317;28;20050;-46
2022/04/30 10:24:03;;;;;;;11.32;5.90;;;11.40;99.90;;;;;;5011535;28;20049;-46
2022/04/30 10:26:28;;;;;;;10.95;5.50;;;11.30;99.90;;;;;;5011283;28;20088;-46
2022/04/30 10:29:20;;;;;;;10.82;6.80;;;11.20;99.90;;;;;;5011160;28;20074;-46
2022/04/30 10:31:45;;;;;;;11.73;6.30;;;11.20;99.90;;;;;;5007261;28;20050;-46
2022/04/30 10:34:12;;;;;;;13.25;6.18;;;11.10;99.90;;;;;;5011423;28;20041;-46
2022/04/30 10:36:39;;;;;;;11.90;6.80;;;11.00;99.90;;;;;;5011350;28;20048;-46
2022/04/30 10:39:09;;;;;;;10.80;6.13;;;10.90;99.90;;;;;;5011029;28;20149;-46
2022/04/30 10:41:45;;;;;;;13.68;6.43;;;10.90;99.90;;;;;;5011208;28;20034;-46
2022/04/30 10:44:13;;;;;;;10.05;6.93;;;10.80;99.90;;;;;;5011083;28;20511;-46
2022/04/30 10:46:44;;;;;;;9.10;6.13;;;10.80;99.90;;;;;;5011259;28;20054;-46
2022/04/30 10:49:10;;;;;;;12.18;6.55;;;10.70;99.90;;;;;;5009937;28;20034;-46
2022/04/30 10:51:40;;;;;;;14.20;6.65;;;10.60;99.90;;;;;;5010907;28;20045;-46
2022/04/30 10:54:18;;;;;;;13.43;7.38;;;10.60;99.90;;;;;;5011107;28;20125;-46
2022/04/30 10:56:44;;;;;;;12.65;7.38;;;10.60;99.90;;;;;;5010997;28;20038;-48
2022/04/30 10:59:10;;;;;;;15.05;7.47;;;10.50;99.90;;;;;;5011039;28;20034;-49
2022/04/30 11:01:35;;;;;;;11.88;7.35;;;10.50;99.90;;;;;;5012412;28;20041;-48
2022/04/30 11:04:02;;;;;;;14.18;7.05;;;10.60;99.90;;;;;;5013471;28;20571;-47
2022/04/30 11:06:30;;;;;;;10.43;7.63;;;10.50;99.90;;;;;;5014362;28;20121;-47
2022/04/30 11:09:07;;;;;;;11.57;7.43;;;10.50;99.90;;;;;;5013986;28;20042;-49
2022/04/30 11:11:35;;;;;;;13.27;7.38;;;10.50;99.90;;;;;;5014085;28;20038;-46
2022/04/30 11:14:06;;;;;;;12.90;6.90;;;10.50;99.90;;;;;;5014472;28;20041;-49
2022/04/30 11:16:45;;;;;;;12.30;7.00;;;10.60;99.90;;;;;;5014253;28;20045;-49
2022/04/30 11:19:13;;;;;;;11.25;7.50;;;10.60;99.90;;;;;;5014018;28;20538;-48
2022/04/30 11:21:43;;;;;;;15.52;7.63;;;10.60;99.90;;;;;;5013977;28;20125;-49
2022/04/30 11:24:10;;;;;;;12.73;7.43;;;10.60;99.90;;;;;;5014802;28;20053;-49
2022/04/30 11:26:41;;;;;;;14.50;7.68;;;10.60;99.90;;;;;;5014076;28;20045;-50
2022/04/30 11:29:08;;;;;;;11.82;7.30;;;10.60;99.90;;;;;;5029112;28;20530;-45
2022/04/30 11:31:34;;;;;;;14.57;7.07;;;10.70;99.90;;;;;;5013844;28;20520;-46
2022/04/30 11:34:15;;;;;;;14.40;8.13;;;10.70;99.90;;;;;;5014256;28;20526;-49
2022/04/30 11:36:58;;;;;;;10.63;6.72;;;10.70;99.90;;;;;;5029247;28;20052;-49
2022/04/30 11:39:25;;;;;;;14.35;6.97;;;10.70;99.90;;;;;;5013726;28;20041;-49
2022/04/30 11:41:52;;;;;;;10.73;7.55;;;10.80;99.90;;;;;;5013619;28;20052;-47
2022/04/30 11:44:22;;;;;;;13.05;7.60;;;10.80;99.90;;;;;;5013319;28;20045;-46
2022/04/30 11:46:51;;;;;;;13.07;7.32;;;10.80;99.90;;;;;;5013653;28;20034;-47
2022/04/30 11:49:19;;;;;;;13.02;7.32;;;10.80;99.90;;;;;;5013557;28;20034;-47
2022/04/30 11:51:46;;;;;;;12.80;6.70;;;10.90;99.90;;;;;;5013485;28;20042;-48
2022/04/30 11:54:15;;;;;;;14.43;7.68;;;10.90;99.90;;;;;;5013621;28;20037;-46
2022/04/30 11:56:42;;;;;;;13.82;7.57;;;10.90;99.90;;;;;;5013472;28;20400;-47
2022/04/30 11:59:08;;;;;;;16.35;7.85;;;10.90;99.90;;;;;;5013149;28;20049;-46
2022/04/30 12:01:36;;;;;;;11.43;7.20;;;10.90;99.90;;;;;;5013559;28;20290;-46
2022/04/30 12:04:08;;;;;;;10.80;6.95;;;10.90;99.90;;;;;;5028851;28;20403;-46
2022/04/30 12:06:35;;;;;;;16.30;7.22;;;10.90;99.90;;;;;;5028449;28;20045;-46
2022/04/30 12:09:19;;;;;;;11.27;8.13;;;10.90;99.90;;;;;;5013010;28;20045;-46
2022/04/30 12:11:49;;;;;;;10.73;6.70;;;10.90;99.90;;;;;;5013135;28;20618;-47
2022/04/30 12:14:15;;;;;;;13.07;6.05;;;10.90;99.90;;;;;;5012743;28;20104;-49
2022/04/30 12:16:42;;;;;;;13.52;6.88;;;11.00;99.90;;;;;;5013502;28;20471;-47
2022/04/30 12:25:11;;;;;;;10.88;6.95;;;11.00;99.90;;;;;;5012940;28;20423;-48
2022/04/30 12:27:37;;;;;;;13.40;6.60;;;11.00;99.90;;;;;;5012826;28;20037;-46
2022/04/30 12:30:06;;;;;;;13.63;6.90;;;11.00;99.90;;;;;;5012912;28;20033;-49
2022/04/30 12:32:34;;;;;;;9.30;6.40;;;11.00;99.90;;;;;;5013154;28;20045;-46
2022/04/30 12:35:01;;;;;;;11.48;7.80;;;10.90;99.90;;;;;;5011459;28;20050;-46
2022/04/30 12:37:34;;;;;;;13.07;7.00;;;10.90;99.90;;;;;;5012637;28;20042;-46
2022/04/30 12:40:00;;;;;;;11.55;6.95;;;10.90;99.90;;;;;;5012767;28;20046;-48
2022/04/30 12:42:28;;;;;;;10.55;6.65;;;11.00;99.90;;;;;;5012435;28;20084;-49
2022/04/30 12:44:53;;;;;;;11.02;6.82;;;11.00;99.90;;;;;;5012371;28;20050;-49
2022/04/30 12:47:19;;;;;;;11.27;6.75;;;11.00;99.90;;;;;;5012307;28;20499;-47
2022/04/30 12:49:44;;;;;;;11.55;7.18;;;11.00;99.90;;;;;;5012573;28;20042;-46
2022/04/30 12:52:10;;;;;;;14.48;6.70;;;11.10;99.90;;;;;;5012371;28;20042;-46
2022/04/30 12:54:36;;;;;;;14.95;7.68;;;11.10;99.90;;;;;;5012376;28;20121;-49
2022/04/30 12:57:07;;;;;;;9.65;6.68;;;11.00;99.90;;;;;;5012380;28;20077;-45
2022/04/30 12:59:33;;;;;;;15.23;7.10;;;11.00;99.90;;;;;;5012075;28;20049;-49
2022/04/30 13:01:58;;;;;;;10.95;6.82;;;11.10;99.90;;;;;;5012216;28;20140;-48
2022/04/30 13:04:24;;;;;;;11.18;7.13;;;11.10;99.90;;;;;;5012337;28;20109;-49
2022/04/30 13:06:49;;;;;;;9.23;6.35;;;11.10;99.90;;;;;;5012269;28;20496;-46
2022/04/30 13:14:45;;;;;;;14.07;7.50;;;11.10;99.90;;;;;;5012253;28;20048;-46
2022/04/30 13:17:11;;;;;;;12.13;7.40;;;11.00;99.90;;;;;;5012227;28;20486;-51
2022/04/30 13:19:39;;;;;;;15.40;7.18;;;11.00;99.90;;;;;;5011914;28;20076;-46
2022/04/30 13:22:05;;;;;;;12.98;6.90;;;11.10;99.90;;;;;;5011891;28;20062;-52
2022/04/30 13:24:30;;;;;;;11.00;6.93;;;11.10;99.90;;;;;;5011008;28;20041;-46
2022/04/30 13:26:57;;;;;;;10.35;7.53;;;11.20;99.90;;;;;;5011963;28;20201;-47
2022/04/30 13:29:23;;;;;;;14.15;7.07;;;11.20;99.90;;;;;;5011841;28;20041;-49
2022/04/30 13:31:48;;;;;;;13.38;7.32;;;11.20;99.90;;;;;;5011898;28;20038;-49